Time;durP1;ratioP1;P1;durP2;ratioP2;P2;SDS_P1;SDS_P2;PMS_P1;PMS_P2;Temp;Humidity;BMP_temperature;BMP_pressure;BME280_temperature;BME280_humidity;BME280_pressure;Samples;Min_cycle;Max_cycle;Signal;HPM_P1;HPM_P2
2022/03/22 00:00:09;;;;;;;11.90;5.23;;;;;;;;;;10495740;22;20044;-72
2022/03/22 00:05:12;;;;;;;13.77;5.63;;;;;;;;;;10552639;28;20081;-72
2022/03/22 00:10:15;;;;;;;14.67;5.20;;;;;;;;;;10534253;28;20043;-72
2022/03/22 00:15:19;;;;;;;14.80;5.00;;;;;;;;;;10511399;28;20036;-71
2022/03/22 00:20:43;;;;;;;11.30;5.00;;;;;;;;;;10508481;28;20032;-72
2022/03/22 00:25:46;;;;;;;12.55;5.38;;;;;;;;;;10517515;28;20043;-72
2022/03/22 00:30:51;;;;;;;12.77;5.43;;;;;;;;;;10510472;28;20040;-73
2022/03/22 00:35:54;;;;;;;11.63;4.90;;;;;;;;;;10533639;28;20040;-73
2022/03/22 00:40:58;;;;;;;16.83;5.23;;;;;;;;;;10526034;28;20089;-72
2022/03/22 00:46:02;;;;;;;13.35;5.20;;;;;;;;;;10526982;28;20024;-73
2022/03/22 00:51:05;;;;;;;10.73;4.30;;;;;;;;;;10519427;28;20166;-71
2022/03/22 00:56:08;;;;;;;11.60;4.97;;;;;;;;;;10511917;28;20123;-71
2022/03/22 01:01:13;;;;;;;13.13;5.37;;;;;;;;;;10527373;28;20033;-72
2022/03/22 01:06:17;;;;;;;12.13;4.07;;;;;;;;;;10522719;28;20071;-71
2022/03/22 01:11:21;;;;;;;12.37;6.00;;;;;;;;;;10510885;28;20101;-71
2022/03/22 01:16:26;;;;;;;11.27;5.70;;;;;;;;;;10527945;28;20051;-72
2022/03/22 01:21:29;;;;;;;15.35;6.03;;;;;;;;;;10513107;28;20044;-72
2022/03/22 01:26:32;;;;;;;13.93;5.17;;;;;;;;;;10507278;28;20038;-72
2022/03/22 01:31:37;;;;;;;9.30;4.15;;;;;;;;;;10493406;28;21202;-72
2022/03/22 01:36:40;;;;;;;15.55;5.57;;;;;;;;;;10496187;28;20052;-72
2022/03/22 01:41:42;;;;;;;12.50;5.90;;;;;;;;;;10534984;28;20048;-72
2022/03/22 01:46:47;;;;;;;18.20;6.43;;;;;;;;;;10530708;28;20046;-71
2022/03/22 01:51:52;;;;;;;15.33;6.20;;;;;;;;;;10524578;28;20063;-72
2022/03/22 01:56:54;;;;;;;13.10;5.03;;;;;;;;;;10545402;28;20024;-72
2022/03/22 02:07:21;;;;;;;12.38;4.22;;;;;;;;;;10544804;28;20283;-73
2022/03/22 02:12:24;;;;;;;5.33;2.60;;;;;;;;;;10536751;28;20044;-72
2022/03/22 02:17:28;;;;;;;4.63;2.27;;;;;;;;;;10537974;28;20092;-72
2022/03/22 02:22:33;;;;;;;13.50;5.63;;;;;;;;;;10539306;28;20058;-72
2022/03/22 02:27:38;;;;;;;13.10;4.83;;;;;;;;;;10516178;28;20086;-72
2022/03/22 02:32:41;;;;;;;12.27;5.07;;;;;;;;;;10508841;28;20242;-72
2022/03/22 02:37:43;;;;;;;13.80;5.50;;;;;;;;;;10524393;28;20118;-74
2022/03/22 02:42:49;;;;;;;14.40;5.47;;;;;;;;;;10522966;28;20032;-73
2022/03/22 02:47:52;;;;;;;12.63;5.67;;;;;;;;;;10535747;28;20056;-73
2022/03/22 02:52:55;;;;;;;22.87;6.30;;;;;;;;;;10504676;28;20043;-73
2022/03/22 02:57:59;;;;;;;19.93;6.57;;;;;;;;;;10526257;28;20275;-73
2022/03/22 03:03:04;;;;;;;16.77;6.30;;;;;;;;;;10514150;28;20684;-73
2022/03/22 03:08:07;;;;;;;;;;;;;;;;;;10522289;28;20404;-73
2022/03/22 03:13:12;;;;;;;12.13;5.57;;;;;;;;;;10515095;28;19931;-74
2022/03/22 03:18:14;;;;;;;16.90;6.37;;;;;;;;;;10522000;28;20085;-74
2022/03/22 03:23:17;;;;;;;13.57;5.57;;;;;;;;;;10497511;28;20049;-73
2022/03/22 03:28:22;;;;;;;15.00;5.67;;;;;;;;;;10521497;28;20166;-72
2022/03/22 03:33:25;;;;;;;;;;;;;;;;;;10510040;28;20113;-72
2022/03/22 03:38:27;;;;;;;4.90;3.50;;;;;;;;;;10506355;28;19924;-73
2022/03/22 03:43:31;;;;;;;12.37;5.63;;;;;;;;;;10523087;28;20135;-72
2022/03/22 03:48:34;;;;;;;;;;;;;;;;;;10535256;28;20704;-71
2022/03/22 03:53:37;;;;;;;2.70;1.90;;;;;;;;;;10532175;28;20289;-73
2022/03/22 03:58:41;;;;;;;19.00;5.83;;;;;;;;;;10508771;28;20071;-71
2022/03/22 04:03:47;;;;;;;;;;;;;;;;;;10525203;28;20075;-72
2022/03/22 04:08:51;;;;;;;17.17;6.47;;;;;;;;;;10511929;28;20019;-71
2022/03/22 04:13:55;;;;;;;12.80;5.27;;;;;;;;;;10519002;28;20035;-71
2022/03/22 04:18:58;;;;;;;12.88;5.15;;;;;;;;;;10509377;28;20044;-72
2022/03/22 04:24:01;;;;;;;17.17;5.37;;;;;;;;;;10528959;28;20040;-71
2022/03/22 04:34:27;;;;;;;15.50;5.77;;;;;;;;;;10518701;28;20037;-71
2022/03/22 04:39:31;;;;;;;14.25;5.28;;;;;;;;;;10515659;28;20044;-71
2022/03/22 04:44:37;;;;;;;15.63;6.57;;;;;;;;;;10538066;28;20089;-71
2022/03/22 04:49:41;;;;;;;15.40;5.53;;;;;;;;;;10520844;28;20040;-74
2022/03/22 05:00:07;;;;;;;12.43;5.30;;;;;;;;;;10527843;28;20028;-71
2022/03/22 05:05:10;;;;;;;16.13;5.83;;;;;;;;;;10500729;28;20130;-74
2022/03/22 05:10:14;;;;;;;14.25;5.63;;;;;;;;;;10529312;28;20036;-72
2022/03/22 05:15:18;;;;;;;13.60;6.07;;;;;;;;;;10526461;28;20498;-72
2022/03/22 05:20:21;;;;;;;14.45;6.05;;;;;;;;;;10508040;28;20079;-74
2022/03/22 05:25:24;;;;;;;12.97;5.77;;;;;;;;;;10528433;28;20793;-74
2022/03/22 05:30:29;;;;;;;13.43;5.05;;;;;;;;;;10518287;28;20063;-73
2022/03/22 05:35:32;;;;;;;;;;;;;;;;;;10507438;28;20067;-73
2022/03/22 05:40:35;;;;;;;12.87;4.53;;;;;;;;;;10519610;28;19981;-71
2022/03/22 05:45:39;;;;;;;15.60;5.70;;;;;;;;;;10499473;28;20100;-73
2022/03/22 05:50:42;;;;;;;11.97;5.07;;;;;;;;;;10524528;28;20040;-71
2022/03/22 05:55:46;;;;;;;16.47;5.07;;;;;;;;;;10505104;28;20050;-72
2022/03/22 06:00:50;;;;;;;15.63;5.60;;;;;;;;;;10508105;28;20113;-75
2022/03/22 06:05:53;;;;;;;7.47;3.40;;;;;;;;;;10516085;22;20649;-74
2022/03/22 06:10:57;;;;;;;7.63;3.47;;;;;;;;;;10486235;28;20083;-74
2022/03/22 06:16:04;;;;;;;18.00;5.80;;;;;;;;;;10487334;28;20036;-74
2022/03/22 06:21:07;;;;;;;10.53;3.07;;;;;;;;;;10493163;28;20039;-73
2022/03/22 06:26:10;;;;;;;14.93;5.97;;;;;;;;;;10500894;28;20036;-74
2022/03/22 06:31:14;;;;;;;5.57;2.93;;;;;;;;;;10512266;28;20040;-74
2022/03/22 06:36:17;;;;;;;;;;;;;;;;;;10500590;28;20044;-74
2022/03/22 06:41:20;;;;;;;14.93;5.40;;;;;;;;;;10498292;28;19977;-74
2022/03/22 06:46:26;;;;;;;19.75;6.00;;;;;;;;;;10517030;28;20036;-74
2022/03/22 06:51:30;;;;;;;17.23;7.10;;;;;;;;;;10499588;28;20068;-74
2022/03/22 06:56:32;;;;;;;14.20;6.70;;;;;;;;;;10512347;28;20512;-76
2022/03/22 07:01:37;;;;;;;16.40;7.43;;;;;;;;;;10492890;28;20089;-74
2022/03/22 07:06:40;;;;;;;14.15;8.07;;;;;;;;;;10523242;28;20044;-74
2022/03/22 07:11:49;;;;;;;15.10;8.13;;;;;;;;;;10519791;28;20042;-75
2022/03/22 07:16:54;;;;;;;16.08;7.38;;;;;;;;;;10502121;28;20036;-77
2022/03/22 07:21:57;;;;;;;16.17;8.80;;;;;;;;;;10511827;28;20031;-74
2022/03/22 07:27:00;;;;;;;16.27;8.77;;;;;;;;;;10509201;28;20032;-75
2022/03/22 07:32:05;;;;;;;14.35;8.95;;;;;;;;;;10530031;28;20097;-75
2022/03/22 07:37:09;;;;;;;14.90;8.50;;;;;;;;;;10506590;28;20045;-74
2022/03/22 07:42:12;;;;;;;14.40;8.60;;;;;;;;;;10499248;28;20048;-76
2022/03/22 07:47:18;;;;;;;13.95;8.93;;;;;;;;;;10507696;28;20044;-75
2022/03/22 07:57:42;;;;;;;17.42;9.43;;;;;;;;;;10518229;28;20136;-74
2022/03/22 08:02:52;;;;;;;16.42;9.75;;;;;;;;;;10497902;28;20047;-75
2022/03/22 08:07:55;;;;;;;14.30;9.90;;;;;;;;;;10504316;28;20086;-75
2022/03/22 08:13:18;;;;;;;13.48;9.40;;;;;;;;;;10499761;28;20388;-73
2022/03/22 08:18:29;;;;;;;15.20;10.23;;;;;;;;;;10512348;22;20086;31
2022/03/22 08:23:34;;;;;;;14.05;9.45;;;;;;;;;;10385664;28;20042;-74
2022/03/22 08:28:37;;;;;;;13.95;9.80;;;;;;;;;;10368408;28;20048;-73
2022/03/22 08:33:42;;;;;;;15.43;9.82;;;;;;;;;;10355248;28;20037;-74
2022/03/22 08:38:46;;;;;;;14.18;9.77;;;;;;;;;;10362426;28;20045;-74
2022/03/22 08:43:48;;;;;;;17.40;9.70;;;;;;;;;;10380119;28;20037;-75
2022/03/22 08:48:53;;;;;;;15.60;9.60;;;;;;;;;;10382407;28;20445;-75
2022/03/22 08:53:57;;;;;;;14.15;9.50;;;;;;;;;;10365730;28;20048;-74
2022/03/22 08:59:00;;;;;;;16.00;10.23;;;;;;;;;;10362663;28;20125;-72
2022/03/22 09:09:30;;;;;;;17.20;10.50;;;;;;;;;;10355898;28;20068;-75
2022/03/22 09:14:33;;;;;;;14.50;9.50;;;;;;;;;;10356833;28;20046;-75
2022/03/22 09:19:37;;;;;;;13.05;9.77;;;;;;;;;;10372502;28;20037;-75
2022/03/22 09:25:00;;;;;;;12.98;9.80;;;;;;;;;;10357701;28;20455;-77
2022/03/22 09:30:03;;;;;;;12.45;9.35;;;;;;;;;;10455279;22;20419;-74
2022/03/22 09:35:10;;;;;;;15.82;9.95;;;;;;;;;;10462905;28;20036;-74
2022/03/22 09:40:15;;;;;;;19.10;13.82;;;;;;;;;;10481772;28;20039;-74
2022/03/22 09:45:19;;;;;;;16.77;10.60;;;;;;;;;;10469199;28;20032;-74
2022/03/22 09:51:44;;;;;;;16.38;9.70;;;;;;;;;;10487654;28;20048;-73
2022/03/22 09:55:47;;;;;;;11.38;9.23;;;;;;;;;;10486257;28;20028;-75
2022/03/22 10:00:50;;;;;;;15.13;10.95;;;;;;;;;;10468105;28;20052;-73
2022/03/22 10:06:02;;;;;;;11.80;9.68;;;;;;;;;;10463648;28;20128;-74
2022/03/22 10:11:05;;;;;;;12.80;9.55;;;;;;;;;;10480683;28;20688;-73
2022/03/22 10:16:08;;;;;;;13.55;10.63;;;;;;;;;;10467670;28;20322;-74
2022/03/22 10:21:12;;;;;;;16.02;9.82;;;;;;;;;;10477020;28;20090;-72
2022/03/22 10:26:16;;;;;;;13.25;9.85;;;;;;;;;;10471182;28;20051;-73
2022/03/22 10:31:20;;;;;;;13.93;9.50;;;;;;;;;;10487396;28;20052;-71
2022/03/22 10:36:25;;;;;;;15.65;9.98;;;;;;;;;;10477694;28;20037;-72
2022/03/22 10:41:29;;;;;;;12.48;9.50;;;;;;;;;;10487194;28;20043;-73
2022/03/22 10:46:34;;;;;;;13.70;9.68;;;;;;;;;;10479943;28;20392;-73
2022/03/22 10:51:46;;;;;;;13.88;8.95;;;;;;;;;;10468220;28;20081;-73
2022/03/22 10:56:50;;;;;;;12.82;9.13;;;;;;;;;;10486327;28;20020;-74
2022/03/22 11:01:55;;;;;;;12.48;10.15;;;;;;;;;;10482376;28;20048;-75
2022/03/22 11:07:03;;;;;;;13.43;9.80;;;;;;;;;;10471452;28;20040;-73
2022/03/22 11:12:06;;;;;;;17.65;9.60;;;;;;;;;;10466025;28;20566;-73
2022/03/22 11:17:09;;;;;;;14.27;9.75;;;;;;;;;;10494912;28;20040;-73
2022/03/22 11:22:17;;;;;;;14.02;9.65;;;;;;;;;;10482334;28;20419;-75
2022/03/22 11:27:28;;;;;;;12.73;9.70;;;;;;;;;;10473112;28;20040;-74
2022/03/22 11:38:00;;;;;;;19.30;10.63;;;;;;;;;;10491483;28;20068;-73
2022/03/22 11:43:09;;;;;;;11.95;9.60;;;;;;;;;;10478207;28;20050;-72
2022/03/22 11:48:12;;;;;;;14.07;8.95;;;;;;;;;;10491367;28;20465;-75
2022/03/22 11:53:20;;;;;;;14.77;9.30;;;;;;;;;;10491726;28;20032;-73
2022/03/22 11:58:27;;;;;;;17.60;9.27;;;;;;;;;;10491331;28;20078;-74
2022/03/22 12:03:52;;;;;;;13.20;8.45;;;;;;;;;;10471508;28;20504;-74
2022/03/22 12:08:57;;;;;;;14.43;9.73;;;;;;;;;;10467763;28;20037;-74
2022/03/22 12:14:00;;;;;;;11.82;8.88;;;;;;;;;;10473143;28;20033;-73
2022/03/22 12:19:03;;;;;;;12.73;9.80;;;;;;;;;;10490534;28;20032;-73
2022/03/22 12:24:07;;;;;;;10.55;8.57;;;;;;;;;;10471175;28;20340;-73
2022/03/22 12:29:10;;;;;;;11.25;8.13;;;;;;;;;;10463720;28;20041;-71
2022/03/22 12:34:13;;;;;;;13.00;8.40;;;;;;;;;;10490058;28;20048;-72
2022/03/22 12:39:17;;;;;;;11.48;8.35;;;;;;;;;;10466224;28;20055;-72
2022/03/22 12:44:21;;;;;;;11.02;8.10;;;;;;;;;;10461535;28;20098;-74
2022/03/22 12:49:25;;;;;;;10.90;7.20;;;;;;;;;;10486158;28;20052;-73
2022/03/22 12:54:33;;;;;;;16.17;8.52;;;;;;;;;;10465846;28;20074;-72
2022/03/22 12:59:36;;;;;;;13.75;7.88;;;;;;;;;;10462937;28;20123;-72
2022/03/22 13:04:46;;;;;;;12.93;7.65;;;;;;;;;;10457593;28;20044;-72
2022/03/22 13:15:15;;;;;;;12.75;8.07;;;;;;;;;;10487304;28;20046;-72
2022/03/22 13:20:21;;;;;;;12.75;7.63;;;;;;;;;;10464598;28;20045;-74
2022/03/22 13:25:30;;;;;;;11.57;7.90;;;;;;;;;;10495740;28;20057;-73
2022/03/22 13:30:38;;;;;;;14.82;8.45;;;;;;;;;;10497517;28;20093;-72
2022/03/22 13:35:52;;;;;;;13.25;7.82;;;;;;;;;;10486687;28;20037;-73
2022/03/22 13:41:00;;;;;;;15.75;8.10;;;;;;;;;;10487307;28;20126;-72
2022/03/22 13:46:03;;;;;;;12.77;7.40;;;;;;;;;;10460781;28;20448;-74
2022/03/22 13:51:10;;;;;;;12.60;7.63;;;;;;;;;;10471769;28;20123;-72
2022/03/22 13:56:15;;;;;;;14.50;7.80;;;;;;;;;;10484380;28;20032;-73
2022/03/22 14:01:18;;;;;;;16.52;9.10;;;;;;;;;;10463527;28;20067;-73
2022/03/22 14:06:21;;;;;;;13.52;7.63;;;;;;;;;;10459422;28;20036;-72
2022/03/22 14:11:26;;;;;;;13.02;7.43;;;;;;;;;;10478920;28;20041;-72
2022/03/22 14:16:29;;;;;;;12.00;7.53;;;;;;;;;;10479349;28;20044;-75
2022/03/22 14:21:32;;;;;;;11.65;7.00;;;;;;;;;;10481938;28;20153;-73
2022/03/22 14:26:36;;;;;;;12.00;6.50;;;;;;;;;;10453222;28;20127;-73
2022/03/22 14:31:39;;;;;;;8.40;5.43;;;;;;;;;;10465280;28;20103;-72
2022/03/22 14:36:43;;;;;;;10.90;5.03;;;;;;;;;;10493414;28;20551;-71
2022/03/22 14:41:47;;;;;;;11.25;5.80;;;;;;;;;;10478234;28;20136;-72
2022/03/22 14:46:51;;;;;;;10.57;5.50;;;;;;;;;;10460030;28;20070;-72
2022/03/22 15:02:40;;;;;;;7.00;4.43;;;;;;;;;;10459660;28;20037;-73
2022/03/22 15:07:45;;;;;;;13.65;6.38;;;;;;;;;;10484196;28;20037;-72
2022/03/22 15:12:50;;;;;;;10.27;5.45;;;;;;;;;;10460426;28;20045;-73
2022/03/22 15:17:53;;;;;;;9.23;4.93;;;;;;;;;;10482041;28;20040;-72
2022/03/22 15:22:56;;;;;;;12.25;5.20;;;;;;;;;;10463280;28;20040;-74
2022/03/22 15:28:01;;;;;;;7.38;4.32;;;;;;;;;;10482815;28;20060;-71
2022/03/22 15:33:04;;;;;;;7.22;4.32;;;;;;;;;;10486213;28;20064;-72
2022/03/22 15:38:07;;;;;;;;;;;;;;;;;;10487016;28;20036;-72
2022/03/22 15:43:13;;;;;;;7.72;4.22;;;;;;;;;;10482023;28;19982;-72
2022/03/22 15:48:16;;;;;;;6.65;3.85;;;;;;;;;;10470638;28;20044;-73
2022/03/22 15:53:20;;;;;;;7.10;3.78;;;;;;;;;;10460681;28;20052;-73
2022/03/22 15:58:25;;;;;;;11.00;4.60;;;;;;;;;;10495597;28;20029;-73
2022/03/22 16:03:29;;;;;;;13.13;5.93;;;;;;;;;;10467857;28;20044;-72
2022/03/22 16:08:35;;;;;;;8.05;4.05;;;;;;;;;;10468333;28;20116;-71
2022/03/22 16:13:40;;;;;;;8.10;3.72;;;;;;;;;;10480711;28;20040;-71
2022/03/22 16:18:45;;;;;;;7.57;3.50;;;;;;;;;;10490152;28;20036;-73
2022/03/22 16:23:51;;;;;;;21.40;11.18;;;;;;;;;;10488711;28;20087;-72
2022/03/22 16:28:57;;;;;;;12.25;5.95;;;;;;;;;;10474550;22;20048;-73
2022/03/22 16:39:24;;;;;;;5.78;3.40;;;;;;;;;;10474054;28;20400;-74
2022/03/22 16:44:37;;;;;;;9.90;4.32;;;;;;;;;;10485658;28;20637;-74
2022/03/22 16:49:44;;;;;;;11.80;4.30;;;;;;;;;;10480142;28;20041;-72
2022/03/22 16:54:49;;;;;;;10.85;3.80;;;;;;;;;;10457756;28;20043;-72
2022/03/22 16:59:53;;;;;;;8.30;3.60;;;;;;;;;;10479856;28;20060;-74
2022/03/22 17:05:00;;;;;;;7.03;3.50;;;;;;;;;;10461362;28;20067;-73
2022/03/22 17:10:04;;;;;;;6.72;3.08;;;;;;;;;;10468959;28;20048;-73
2022/03/22 17:15:09;;;;;;;7.47;3.30;;;;;;;;;;10463165;28;20044;-73
2022/03/22 17:20:12;;;;;;;7.45;3.30;;;;;;;;;;10477405;28;20028;-73
2022/03/22 17:25:16;;;;;;;7.00;3.70;;;;;;;;;;10460078;28;20408;-72
2022/03/22 17:30:20;;;;;;;5.90;3.08;;;;;;;;;;10456572;28;20502;-74
2022/03/22 17:35:23;;;;;;;7.53;3.15;;;;;;;;;;10485001;28;20446;-73
2022/03/22 17:40:26;;;;;;;7.55;3.42;;;;;;;;;;10472579;28;20072;-73
2022/03/22 17:45:31;;;;;;;6.70;3.77;;;;;;;;;;10466273;28;20071;-74
2022/03/22 17:50:36;;;;;;;6.53;3.35;;;;;;;;;;10482198;28;20036;-73
2022/03/22 17:55:39;;;;;;;6.07;3.20;;;;;;;;;;10467960;28;20051;-73
2022/03/22 18:00:43;;;;;;;6.83;3.70;;;;;;;;;;10485660;28;20477;-74
2022/03/22 18:05:49;;;;;;;8.98;4.40;;;;;;;;;;10468339;28;20291;-74
2022/03/22 18:11:41;;;;;;;10.77;4.80;;;;;;;;;;10476383;28;20039;-74
2022/03/22 18:16:17;;;;;;;9.70;4.07;;;;;;;;;;10466966;28;20658;-74
2022/03/22 18:21:39;;;;;;;12.45;4.07;;;;;;;;;;10461585;28;20804;-71
2022/03/22 18:26:43;;;;;;;10.07;4.40;;;;;;;;;;10479920;28;20039;-73
2022/03/22 18:31:47;;;;;;;10.37;4.67;;;;;;;;;;10472351;28;20291;-72
2022/03/22 18:36:50;;;;;;;10.30;4.57;;;;;;;;;;10485321;28;20334;-73
2022/03/22 18:41:53;;;;;;;9.57;4.93;;;;;;;;;;10483386;28;20043;-74
2022/03/22 18:46:58;;;;;;;10.43;4.60;;;;;;;;;;10490451;28;20040;-73
2022/03/22 18:52:04;;;;;;;12.80;4.70;;;;;;;;;;10479456;28;20037;-72
2022/03/22 18:57:07;;;;;;;10.40;4.88;;;;;;;;;;10481580;28;20098;-73
2022/03/22 19:02:11;;;;;;;12.23;5.63;;;;;;;;;;10464229;28;20047;-74
2022/03/22 19:07:15;;;;;;;12.65;5.88;;;;;;;;;;10481541;28;20056;-72
2022/03/22 19:12:18;;;;;;;11.75;5.80;;;;;;;;;;10471558;28;20033;-73
2022/03/22 19:22:43;;;;;;;10.02;4.57;;;;;;;;;;10483139;28;20033;-72
2022/03/22 19:27:46;;;;;;;10.98;5.70;;;;;;;;;;10474774;28;20064;-73
2022/03/22 19:33:06;;;;;;;13.25;5.10;;;;;;;;;;10463917;28;20040;-72
2022/03/22 19:38:12;;;;;;;10.40;4.85;;;;;;;;;;10476835;28;20082;-73
2022/03/22 19:43:16;;;;;;;13.93;5.35;;;;;;;;;;10495204;28;20025;-73
2022/03/22 19:48:19;;;;;;;;;;;;;;;;;;10478921;28;20048;-72
2022/03/22 19:53:23;;;;;;;10.10;4.72;;;;;;;;;;10498352;28;19924;-74
2022/03/22 19:58:26;;;;;;;;;;;;;;;;;;10493006;28;20048;-73
2022/03/22 20:03:29;;;;;;;13.13;5.18;;;;;;;;;;10483662;28;19928;-72
2022/03/22 20:08:33;;;;;;;10.80;4.63;;;;;;;;;;10498360;28;20040;-73
2022/03/22 20:13:37;;;;;;;16.63;6.25;;;;;;;;;;10482164;28;20033;-74
2022/03/22 20:18:40;;;;;;;11.82;5.47;;;;;;;;;;10458001;28;20492;-74
2022/03/22 20:23:47;;;;;;;15.13;5.63;;;;;;;;;;10472966;28;20481;-73
2022/03/22 20:28:50;;;;;;;13.52;5.55;;;;;;;;;;10467867;28;20044;-73
2022/03/22 20:33:53;;;;;;;12.80;5.87;;;;;;;;;;10475354;28;20132;-76
2022/03/22 20:38:58;;;;;;;16.95;5.72;;;;;;;;;;10483683;28;20108;-76
2022/03/22 20:44:01;;;;;;;13.43;5.88;;;;;;;;;;10452349;28;20361;-73
2022/03/22 20:49:04;;;;;;;14.10;5.40;;;;;;;;;;10474351;28;20045;-73
2022/03/22 20:54:09;;;;;;;12.02;4.95;;;;;;;;;;10473605;28;20033;-73
2022/03/22 20:59:13;;;;;;;14.20;5.88;;;;;;;;;;10483248;28;20029;-74
2022/03/22 21:04:16;;;;;;;17.15;6.03;;;;;;;;;;10479637;28;20102;-74
2022/03/22 21:09:20;;;;;;;14.88;5.85;;;;;;;;;;10484772;28;20029;-74
2022/03/22 21:14:24;;;;;;;23.27;9.93;;;;;;;;;;10463632;28;20115;-73
2022/03/22 21:19:27;;;;;;;19.33;6.07;;;;;;;;;;10474056;28;20423;-74
2022/03/22 21:24:32;;;;;;;21.10;6.10;;;;;;;;;;10470788;28;20113;-73
2022/03/22 21:29:35;;;;;;;15.45;6.47;;;;;;;;;;10454533;28;20040;-74
2022/03/22 21:34:41;;;;;;;16.73;6.38;;;;;;;;;;10471762;28;20123;-72
2022/03/22 21:39:45;;;;;;;18.27;6.57;;;;;;;;;;10459404;28;20137;-73
2022/03/22 21:44:48;;;;;;;18.88;8.52;;;;;;;;;;10450516;28;20047;-73
2022/03/22 21:49:54;;;;;;;16.95;5.93;;;;;;;;;;10464711;28;20028;-72
2022/03/22 21:54:58;;;;;;;19.30;8.07;;;;;;;;;;10475707;28;20113;-72
2022/03/22 22:00:01;;;;;;;18.08;7.03;;;;;;;;;;10462351;28;20083;-71
2022/03/22 22:05:04;;;;;;;18.50;6.97;;;;;;;;;;10481470;28;20446;-74
2022/03/22 22:10:09;;;;;;;19.20;7.15;;;;;;;;;;10466389;28;20508;-72
2022/03/22 22:15:13;;;;;;;18.35;7.57;;;;;;;;;;10483117;28;20039;-73
2022/03/22 22:20:16;;;;;;;17.65;7.55;;;;;;;;;;10488467;28;20492;-77
2022/03/22 22:25:21;;;;;;;19.57;6.90;;;;;;;;;;10494579;28;20040;-75
2022/03/22 22:30:23;;;;;;;;;;;;;;;;;;10481812;28;20608;-74
2022/03/22 22:35:27;;;;;;;19.10;7.68;;;;;;;;;;10470074;22;19921;-75
2022/03/22 22:40:31;;;;;;;16.80;7.57;;;;;;;;;;10477384;28;20021;-75
2022/03/22 22:45:34;;;;;;;;;;;;;;;;;;10479170;28;20035;-74
2022/03/22 22:50:37;;;;;;;20.35;7.78;;;;;;;;;;10479294;28;19920;-74
2022/03/22 22:55:42;;;;;;;19.23;6.70;;;;;;;;;;10471000;28;20040;-76
2022/03/22 23:00:52;;;;;;;19.48;7.40;;;;;;;;;;10468518;28;20028;-74
2022/03/22 23:05:56;;;;;;;19.63;7.40;;;;;;;;;;10472173;28;20045;-75
2022/03/22 23:11:00;;;;;;;23.90;8.02;;;;;;;;;;10466802;28;20420;-76
2022/03/22 23:16:03;;;;;;;;;;;;;;;;;;10473867;28;20135;-76
2022/03/22 23:21:07;;;;;;;19.48;7.10;;;;;;;;;;10471164;28;19924;-74
2022/03/22 23:26:11;;;;;;;23.00;7.70;;;;;;;;;;10465826;28;20115;-74
2022/03/22 23:31:14;;;;;;;19.63;7.68;;;;;;;;;;10478843;28;20427;-74
2022/03/22 23:36:17;;;;;;;20.88;7.05;;;;;;;;;;10467379;28;20037;-74
2022/03/22 23:41:22;;;;;;;22.17;8.40;;;;;;;;;;10479483;28;20040;-74
2022/03/22 23:46:25;;;;;;;20.73;8.02;;;;;;;;;;10474037;28;20048;-74
2022/03/22 23:51:28;;;;;;;27.23;7.20;;;;;;;;;;10471822;28;20040;-74
2022/03/22 23:56:32;;;;;;;16.83;7.00;;;;;;;;;;10472238;28;20053;-74
